DFRMC EDDW-EDDH
Flight info
| Callsign | DFRMC |
|---|---|
| Flight time | N/A |
| Altitude | |
| Route | |
| Aircraft | TBM9 |
Departure
| Time | 2026-04-28 19:37 |
|---|---|
| Airport | Bremen Airport (EDDW) |
Arrival
| Time | N/A |
|---|---|
| Airport | Hamburg Helmut Schmidt Airport (EDDH) |
| Time | Latitude | Longitude | Altitude | Speed | Heading |
|---|---|---|---|---|---|
| 2026-04-28 19:27 | 53.05021 | 8.78123 | 17 ft | 0 kts | 8° |
| 2026-04-28 19:30 | 53.05025 | 8.78123 | 17 ft | 0 kts | 1° |
| 2026-04-28 19:31 | 53.05075 | 8.78083 | 17 ft | 10 kts | 328° |
| 2026-04-28 19:31 | 53.05105 | 8.78051 | 17 ft | 4 kts | 323° |
| 2026-04-28 19:31 | 53.05142 | 8.78015 | 17 ft | 7 kts | 329° |
| 2026-04-28 19:32 | 53.05140 | 8.77939 | 17 ft | 10 kts | 233° |
| 2026-04-28 19:32 | 53.05083 | 8.77840 | 17 ft | 14 kts | 228° |
| 2026-04-28 19:32 | 53.05014 | 8.77711 | 17 ft | 16 kts | 228° |
| 2026-04-28 19:32 | 53.04937 | 8.77579 | 17 ft | 13 kts | 217° |
| 2026-04-28 19:33 | 53.04875 | 8.77505 | 17 ft | 10 kts | 211° |
| 2026-04-28 19:33 | 53.04822 | 8.77468 | 17 ft | 0 kts | 208° |
| 2026-04-28 19:36 | 53.04793 | 8.77456 | 17 ft | 13 kts | 185° |
| 2026-04-28 19:36 | 53.04686 | 8.77486 | 17 ft | 16 kts | 148° |
| 2026-04-28 19:36 | 53.04664 | 8.77660 | 17 ft | 20 kts | 84° |
| 2026-04-28 19:37 | 53.04681 | 8.78263 | 17 ft | 87 kts | 88° |
| 2026-04-28 19:37 | 53.04676 | 8.79073 | 80 ft | 120 kts | 92° |
| 2026-04-28 19:37 | 53.04604 | 8.81132 | 536 ft | 148 kts | 94° |
| 2026-04-28 19:37 | 53.04491 | 8.82974 | 838 ft | 175 kts | 98° |
| 2026-04-28 19:38 | 53.04341 | 8.85062 | 1299 ft | 185 kts | 96° |
| 2026-04-28 19:38 | 53.04278 | 8.87244 | 1549 ft | 193 kts | 78° |
| 2026-04-28 19:38 | 53.04792 | 8.89335 | 1699 ft | 200 kts | 60° |
| 2026-04-28 19:38 | 53.05524 | 8.91279 | 2037 ft | 198 kts | 61° |
| 2026-04-28 19:39 | 53.06174 | 8.93209 | 2584 ft | 190 kts | 62° |
| 2026-04-28 19:39 | 53.06804 | 8.95232 | 2645 ft | 204 kts | 64° |
| 2026-04-28 19:39 | 53.07425 | 8.97392 | 2740 ft | 209 kts | 65° |
| 2026-04-28 19:39 | 53.08040 | 8.99564 | 2716 ft | 213 kts | 65° |
| 2026-04-28 19:40 | 53.08654 | 9.01950 | 2267 ft | 228 kts | 69° |
| 2026-04-28 19:40 | 53.09201 | 9.04423 | 2047 ft | 228 kts | 71° |
| 2026-04-28 19:40 | 53.09648 | 9.06978 | 1688 ft | 230 kts | 75° |
| 2026-04-28 19:40 | 53.09982 | 9.09520 | 1709 ft | 221 kts | 79° |
| 2026-04-28 19:41 | 53.10223 | 9.12112 | 1367 ft | 227 kts | 82° |
| 2026-04-28 19:41 | 53.10356 | 9.14602 | 1436 ft | 209 kts | 85° |
| 2026-04-28 19:41 | 53.10378 | 9.16924 | 1469 ft | 189 kts | 89° |
| 2026-04-28 19:41 | 53.10283 | 9.19022 | 1568 ft | 177 kts | 94° |
| 2026-04-28 19:42 | 53.10081 | 9.21019 | 1539 ft | 179 kts | 98° |
| 2026-04-28 19:42 | 53.09766 | 9.23019 | 1524 ft | 180 kts | 102° |
| 2026-04-28 19:42 | 53.09379 | 9.24966 | 1611 ft | 177 kts | 107° |
| 2026-04-28 19:42 | 53.09039 | 9.26195 | 1885 ft | 162 kts | 114° |
| 2026-04-28 19:43 | 53.08435 | 9.28554 | 1856 ft | 172 kts | 102° |
| 2026-04-28 19:43 | 53.08158 | 9.30447 | 1921 ft | 168 kts | 100° |
| 2026-04-28 19:43 | 53.08063 | 9.32324 | 2008 ft | 159 kts | 78° |
| 2026-04-28 19:43 | 53.08491 | 9.34008 | 1983 ft | 163 kts | 56° |
| 2026-04-28 19:44 | 53.09299 | 9.35365 | 1858 ft | 169 kts | 36° |
| 2026-04-28 19:44 | 53.10377 | 9.36249 | 1710 ft | 174 kts | 26° |
| 2026-04-28 19:44 | 53.11495 | 9.36987 | 1705 ft | 170 kts | 25° |
| 2026-04-28 19:44 | 53.12652 | 9.37520 | 1639 ft | 171 kts | 11° |
| 2026-04-28 19:45 | 53.13810 | 9.37256 | 1796 ft | 171 kts | 347° |
| 2026-04-28 19:45 | 53.14809 | 9.36218 | 1957 ft | 174 kts | 316° |
| 2026-04-28 19:45 | 53.15248 | 9.34281 | 1964 ft | 189 kts | 280° |
| 2026-04-28 19:45 | 53.15277 | 9.32140 | 1768 ft | 174 kts | 275° |
| 2026-04-28 19:46 | 53.15340 | 9.30183 | 1403 ft | 167 kts | 279° |
| 2026-04-28 19:46 | 53.15392 | 9.28950 | 1288 ft | 155 kts | 279° |
| 2026-04-28 19:46 | 53.15482 | 9.27266 | 1072 ft | 142 kts | 279° |
| 2026-04-28 19:46 | 53.15403 | 9.25652 | 1213 ft | 145 kts | 253° |
| 2026-04-28 19:47 | 53.14938 | 9.23916 | 1246 ft | 180 kts | 253° |
| 2026-04-28 19:47 | 53.15061 | 9.21943 | 1498 ft | 169 kts | 317° |
| 2026-04-28 19:47 | 53.16073 | 9.21132 | 1694 ft | 161 kts | 0° |
| 2026-04-28 19:47 | 53.17004 | 9.21849 | 1837 ft | 159 kts | 46° |
| 2026-04-28 19:48 | 53.17633 | 9.23458 | 1788 ft | 172 kts | 73° |
| 2026-04-28 19:48 | 53.17769 | 9.25489 | 1779 ft | 178 kts | 86° |
| 2026-04-28 19:48 | 53.17665 | 9.27596 | 1743 ft | 184 kts | 97° |
| 2026-04-28 19:48 | 53.17339 | 9.29653 | 1736 ft | 188 kts | 104° |
| 2026-04-28 19:49 | 53.16885 | 9.31666 | 1777 ft | 180 kts | 104° |
| 2026-04-28 19:49 | 53.16528 | 9.33725 | 1533 ft | 191 kts | 103° |
| 2026-04-28 19:49 | 53.16118 | 9.35751 | 1693 ft | 179 kts | 106° |
| 2026-04-28 19:49 | 53.15663 | 9.37646 | 1787 ft | 181 kts | 109° |
| 2026-04-28 19:50 | 53.15587 | 9.41221 | 1636 ft | 148 kts | 36° |
| 2026-04-28 19:50 | 53.16604 | 9.41459 | 1430 ft | 156 kts | 352° |
| 2026-04-28 19:50 | 53.17499 | 9.40331 | 1341 ft | 176 kts | 309° |
| 2026-04-28 19:51 | 53.17971 | 9.38586 | 1441 ft | 169 kts | 294° |
| 2026-04-28 19:51 | 53.18344 | 9.36725 | 1784 ft | 166 kts | 295° |
| 2026-04-28 19:51 | 53.18594 | 9.34696 | 1752 ft | 191 kts | 279° |
| 2026-04-28 19:51 | 53.18582 | 9.32370 | 1581 ft | 210 kts | 270° |
| 2026-04-28 19:52 | 53.18502 | 9.29896 | 1492 ft | 203 kts | 271° |
| 2026-04-28 19:52 | 53.18456 | 9.27773 | 1440 ft | 174 kts | 273° |
| 2026-04-28 19:52 | 53.18425 | 9.25875 | 1305 ft | 159 kts | 273° |
| 2026-04-28 19:52 | 53.18275 | 9.24120 | 1301 ft | 151 kts | 251° |
| 2026-04-28 19:53 | 53.17708 | 9.22651 | 1360 ft | 150 kts | 230° |
| 2026-04-28 19:53 | 53.17020 | 9.21326 | 1363 ft | 153 kts | 225° |
| 2026-04-28 19:53 | 53.16144 | 9.20326 | 1332 ft | 153 kts | 197° |
| 2026-04-28 19:53 | 53.15128 | 9.19777 | 1288 ft | 152 kts | 191° |
| 2026-04-28 19:54 | 53.14154 | 9.19657 | 1412 ft | 136 kts | 158° |
| 2026-04-28 19:54 | 53.13328 | 9.20327 | 1403 ft | 132 kts | 137° |
| 2026-04-28 19:54 | 53.12613 | 9.21255 | 1391 ft | 127 kts | 132° |
| 2026-04-28 19:54 | 53.12049 | 9.22228 | 1476 ft | 97 kts | 116° |
| 2026-04-28 19:55 | 53.11746 | 9.23059 | 1465 ft | 79 kts | 108° |
| 2026-04-28 19:55 | 53.11483 | 9.23849 | 1400 ft | 77 kts | 103° |
| 2026-04-28 19:55 | 53.11412 | 9.24698 | 1277 ft | 75 kts | 70° |
| 2026-04-28 19:55 | 53.11612 | 9.25500 | 1118 ft | 75 kts | 65° |
| 2026-04-28 19:56 | 53.11774 | 9.26326 | 1005 ft | 76 kts | 69° |
| 2026-04-28 19:56 | 53.11915 | 9.27160 | 903 ft | 75 kts | 69° |
| 2026-04-28 19:56 | 53.12024 | 9.27984 | 827 ft | 71 kts | 71° |
| 2026-04-28 19:56 | 53.12132 | 9.28790 | 754 ft | 73 kts | 74° |
| 2026-04-28 19:57 | 53.12237 | 9.29658 | 664 ft | 79 kts | 75° |
| 2026-04-28 19:57 | 53.12339 | 9.30572 | 538 ft | 83 kts | 76° |
| 2026-04-28 19:57 | 53.12454 | 9.31505 | 442 ft | 78 kts | 76° |
| 2026-04-28 19:57 | 53.12559 | 9.32367 | 377 ft | 74 kts | 71° |
| 2026-04-28 19:58 | 53.12659 | 9.33218 | 280 ft | 77 kts | 79° |
| 2026-04-28 19:58 | 53.12752 | 9.34076 | 143 ft | 72 kts | 74° |
| 2026-04-28 19:58 | 53.12845 | 9.34816 | 100 ft | 51 kts | 81° |
| 2026-04-28 19:58 | 53.12867 | 9.35056 | 101 ft | 13 kts | 80° |
| 2026-04-28 19:59 | 53.12892 | 9.35297 | 102 ft | 23 kts | 78° |
| 2026-04-28 19:59 | 53.12950 | 9.35487 | 101 ft | 17 kts | 26° |
| 2026-04-28 19:59 | 53.13051 | 9.35559 | 101 ft | 11 kts | 353° |
| 2026-04-28 19:59 | 53.13064 | 9.35452 | 101 ft | 12 kts | 260° |
| 2026-04-28 20:00 | 53.13047 | 9.35291 | 101 ft | 16 kts | 257° |
| 2026-04-28 20:00 | 53.13022 | 9.35103 | 101 ft | 13 kts | 262° |
| 2026-04-28 20:00 | 53.13003 | 9.35020 | 101 ft | 4 kts | 172° |
| 2026-04-28 20:00 | 53.12994 | 9.35039 | 101 ft | 0 kts | 88° |